sensor_id;sensor_type;location;lat;lon;timestamp;pressure;altitude;pressure_sealevel;temperature;humidity
63691;BME280;49837;57.280;27.070;2023-04-03T00:00:56;101017.5;;;-3.05;75.17
63691;BME280;49837;57.280;27.070;2023-04-03T00:01:55;101019.59;;;-2.97;74.95
63691;BME280;49837;57.280;27.070;2023-04-03T00:02:56;101011.47;;;-2.96;74.94
63691;BME280;49837;57.280;27.070;2023-04-03T00:03:56;101014.69;;;-3.01;75.42
63691;BME280;49837;57.280;27.070;2023-04-03T00:04:56;101014.85;;;-2.98;75.37
63691;BME280;49837;57.280;27.070;2023-04-03T00:05:57;101018.2;;;-3.02;75.54
63691;BME280;49837;57.280;27.070;2023-04-03T00:06:57;101018.16;;;-3.06;75.8
63691;BME280;49837;57.280;27.070;2023-04-03T00:07:58;101016.44;;;-3.03;75.75
63691;BME280;49837;57.280;27.070;2023-04-03T00:08:58;101019.72;;;-2.94;75.37
63691;BME280;49837;57.280;27.070;2023-04-03T00:09:58;101015.84;;;-2.97;75.56
63691;BME280;49837;57.280;27.070;2023-04-03T00:10:59;101016.89;;;-3.03;75.91
63691;BME280;49837;57.280;27.070;2023-04-03T00:11:59;101020.45;;;-3.07;76.18
63691;BME280;49837;57.280;27.070;2023-04-03T00:13:00;101015.3;;;-3.07;76.16
63691;BME280;49837;57.280;27.070;2023-04-03T00:14:00;101011.43;;;-3.07;76.16
63691;BME280;49837;57.280;27.070;2023-04-03T00:15:00;101017.3;;;-3.06;76.32
63691;BME280;49837;57.280;27.070;2023-04-03T00:16:01;101010.2;;;-3.01;76.29
63691;BME280;49837;57.280;27.070;2023-04-03T00:17:01;101017.3;;;-3.01;76.3
63691;BME280;49837;57.280;27.070;2023-04-03T00:18:02;101014.32;;;-3.07;76.65
63691;BME280;49837;57.280;27.070;2023-04-03T00:19:02;101009.63;;;-3.1;76.75
63691;BME280;49837;57.280;27.070;2023-04-03T00:20:03;101012.12;;;-3.07;76.74
63691;BME280;49837;57.280;27.070;2023-04-03T00:21:03;101017.39;;;-3.08;76.83
63691;BME280;49837;57.280;27.070;2023-04-03T00:22:03;101008.61;;;-3.01;76.62
63691;BME280;49837;57.280;27.070;2023-04-03T00:23:04;101009.06;;;-2.99;76.54
63691;BME280;49837;57.280;27.070;2023-04-03T00:24:05;101009.34;;;-3.04;76.78
63691;BME280;49837;57.280;27.070;2023-04-03T00:25:05;101007.19;;;-3.07;77.01
63691;BME280;49837;57.280;27.070;2023-04-03T00:26:05;101009.8;;;-3.09;77.23
63691;BME280;49837;57.280;27.070;2023-04-03T00:27:06;101011.71;;;-3.11;77.42
63691;BME280;49837;57.280;27.070;2023-04-03T00:28:06;101009.14;;;-3.08;77.27
63691;BME280;49837;57.280;27.070;2023-04-03T00:29:06;101012.48;;;-3.14;77.53
63691;BME280;49837;57.280;27.070;2023-04-03T00:30:08;101010.12;;;-3.12;77.49
63691;BME280;49837;57.280;27.070;2023-04-03T00:31:08;101010.97;;;-3.16;77.72
63691;BME280;49837;57.280;27.070;2023-04-03T00:32:08;101006.64;;;-3.2;77.9
63691;BME280;49837;57.280;27.070;2023-04-03T00:33:12;101010.12;;;-3.14;77.71
63691;BME280;49837;57.280;27.070;2023-04-03T00:34:09;101008.45;;;-3.11;77.56
63691;BME280;49837;57.280;27.070;2023-04-03T00:35:10;101012.94;;;-3.11;77.61
63691;BME280;49837;57.280;27.070;2023-04-03T00:36:11;101009.02;;;-3.07;77.41
63691;BME280;49837;57.280;27.070;2023-04-03T00:37:11;101008.94;;;-3.11;77.73
63691;BME280;49837;57.280;27.070;2023-04-03T00:38:11;101007.95;;;-3.21;78.0
63691;BME280;49837;57.280;27.070;2023-04-03T00:39:11;101002.66;;;-3.17;77.82
63691;BME280;49837;57.280;27.070;2023-04-03T00:40:14;101004.57;;;-3.16;77.82
63691;BME280;49837;57.280;27.070;2023-04-03T00:41:12;101009.27;;;-3.17;77.97
63691;BME280;49837;57.280;27.070;2023-04-03T00:42:13;101013.7;;;-3.23;78.14
63691;BME280;49837;57.280;27.070;2023-04-03T00:45:38;101006.23;;;-3.24;78.31
63691;BME280;49837;57.280;27.070;2023-04-03T00:46:21;101012.68;;;-3.22;78.42
63691;BME280;49837;57.280;27.070;2023-04-03T00:47:22;101009.95;;;-3.17;78.3
63691;BME280;49837;57.280;27.070;2023-04-03T00:49:25;101010.84;;;-3.25;78.66
63691;BME280;49837;57.280;27.070;2023-04-03T00:50:27;101020.47;;;-3.21;78.59
63691;BME280;49837;57.280;27.070;2023-04-03T00:51:26;101012.52;;;-3.24;78.89
63691;BME280;49837;57.280;27.070;2023-04-03T00:52:28;101013.09;;;-3.22;78.83
63691;BME280;49837;57.280;27.070;2023-04-03T00:53:40;101010.64;;;-3.17;78.67
63691;BME280;49837;57.280;27.070;2023-04-03T00:54:29;101008.48;;;-3.23;78.92
63691;BME280;49837;57.280;27.070;2023-04-03T00:55:29;101010.73;;;-3.24;79.06
63691;BME280;49837;57.280;27.070;2023-04-03T00:56:30;101006.4;;;-3.26;79.14
63691;BME280;49837;57.280;27.070;2023-04-03T00:57:31;101005.13;;;-3.25;79.21
63691;BME280;49837;57.280;27.070;2023-04-03T00:58:34;101010.8;;;-3.26;79.34
63691;BME280;49837;57.280;27.070;2023-04-03T00:59:37;101007.95;;;-3.25;79.32
63691;BME280;49837;57.280;27.070;2023-04-03T01:00:39;101010.8;;;-3.26;79.39
63691;BME280;49837;57.280;27.070;2023-04-03T01:01:39;101009.66;;;-3.24;79.39
63691;BME280;49837;57.280;27.070;2023-04-03T01:02:39;101011.82;;;-3.21;79.41
63691;BME280;49837;57.280;27.070;2023-04-03T01:03:40;101012.73;;;-3.16;79.32
63691;BME280;49837;57.280;27.070;2023-04-03T01:04:42;101016.45;;;-3.09;79.13
63691;BME280;49837;57.280;27.070;2023-04-03T01:05:40;101010.61;;;-3.06;78.94
63691;BME280;49837;57.280;27.070;2023-04-03T01:06:41;101011.59;;;-3.1;79.04
63691;BME280;49837;57.280;27.070;2023-04-03T01:07:41;101016.93;;;-3.14;79.18
63691;BME280;49837;57.280;27.070;2023-04-03T01:08:42;101018.64;;;-3.09;79.29
63691;BME280;49837;57.280;27.070;2023-04-03T01:09:43;101010.61;;;-3.1;79.42
63691;BME280;49837;57.280;27.070;2023-04-03T01:10:43;101013.75;;;-3.19;79.8
63691;BME280;49837;57.280;27.070;2023-04-03T01:11:43;101014.44;;;-3.21;79.92
63691;BME280;49837;57.280;27.070;2023-04-03T01:12:45;101016.59;;;-3.18;79.88
63691;BME280;49837;57.280;27.070;2023-04-03T01:13:44;101008.08;;;-3.19;79.92
63691;BME280;49837;57.280;27.070;2023-04-03T01:14:45;101017.17;;;-3.19;79.95
63691;BME280;49837;57.280;27.070;2023-04-03T01:15:44;101008.6;;;-3.22;80.12
63691;BME280;49837;57.280;27.070;2023-04-03T01:16:54;101009.58;;;-3.24;80.33
63691;BME280;49837;57.280;27.070;2023-04-03T01:17:50;101007.34;;;-3.25;80.37
63691;BME280;49837;57.280;27.070;2023-04-03T01:18:48;101016.23;;;-3.25;80.59
63691;BME280;49837;57.280;27.070;2023-04-03T01:19:57;101009.78;;;-3.24;80.62
63691;BME280;49837;57.280;27.070;2023-04-03T01:25:01;101005.67;;;-3.11;80.44
63691;BME280;49837;57.280;27.070;2023-04-03T01:26:02;101009.72;;;-3.12;80.36
63691;BME280;49837;57.280;27.070;2023-04-03T01:27:04;101011.18;;;-3.14;80.55
63691;BME280;49837;57.280;27.070;2023-04-03T01:28:03;101003.55;;;-3.09;80.47
63691;BME280;49837;57.280;27.070;2023-04-03T01:29:03;101009.27;;;-3.07;80.37
63691;BME280;49837;57.280;27.070;2023-04-03T01:30:03;101009.43;;;-3.04;80.13
63691;BME280;49837;57.280;27.070;2023-04-03T01:32:06;101006.86;;;-3.01;80.1
63691;BME280;49837;57.280;27.070;2023-04-03T01:33:06;101005.34;;;-3.0;80.03
63691;BME280;49837;57.280;27.070;2023-04-03T01:34:06;101000.94;;;-3.0;80.15
63691;BME280;49837;57.280;27.070;2023-04-03T01:35:08;101012.04;;;-3.02;80.24
63691;BME280;49837;57.280;27.070;2023-04-03T01:36:08;101014.81;;;-2.99;80.07
63691;BME280;49837;57.280;27.070;2023-04-03T01:37:08;101007.91;;;-3.0;80.08
63691;BME280;49837;57.280;27.070;2023-04-03T01:38:08;101022.94;;;-3.03;80.3
63691;BME280;49837;57.280;27.070;2023-04-03T01:39:09;101019.7;;;-2.96;79.91
63691;BME280;49837;57.280;27.070;2023-04-03T01:40:09;101008.85;;;-2.99;80.04
63691;BME280;49837;57.280;27.070;2023-04-03T01:41:09;100999.06;;;-3.01;80.13
63691;BME280;49837;57.280;27.070;2023-04-03T01:42:10;101004.77;;;-3.03;80.3
63691;BME280;49837;57.280;27.070;2023-04-03T01:43:10;101015.06;;;-3.02;80.3
63691;BME280;49837;57.280;27.070;2023-04-03T01:44:10;101004.82;;;-3.01;80.11
63691;BME280;49837;57.280;27.070;2023-04-03T01:45:11;101002.61;;;-3.01;80.19
63691;BME280;49837;57.280;27.070;2023-04-03T01:46:11;100995.47;;;-2.98;80.13
63691;BME280;49837;57.280;27.070;2023-04-03T01:47:12;101000.69;;;-2.96;79.94
63691;BME280;49837;57.280;27.070;2023-04-03T01:48:13;101001.34;;;-2.9;79.69
63691;BME280;49837;57.280;27.070;2023-04-03T01:49:12;101015.14;;;-2.89;79.68
63691;BME280;49837;57.280;27.070;2023-04-03T01:50:13;101008.03;;;-2.86;79.54
63691;BME280;49837;57.280;27.070;2023-04-03T01:51:13;101003.88;;;-2.89;79.78
63691;BME280;49837;57.280;27.070;2023-04-03T01:52:14;101007.59;;;-2.89;79.75
63691;BME280;49837;57.280;27.070;2023-04-03T01:53:14;101003.87;;;-2.84;79.44
63691;BME280;49837;57.280;27.070;2023-04-03T01:54:14;101008.2;;;-2.81;79.48
63691;BME280;49837;57.280;27.070;2023-04-03T01:55:15;101008.03;;;-2.74;79.18
63691;BME280;49837;57.280;27.070;2023-04-03T01:56:15;101005.7;;;-2.76;79.18
63691;BME280;49837;57.280;27.070;2023-04-03T01:57:16;101010.15;;;-2.77;79.37
63691;BME280;49837;57.280;27.070;2023-04-03T01:58:16;101004.88;;;-2.76;79.29
63691;BME280;49837;57.280;27.070;2023-04-03T01:59:17;101003.45;;;-2.74;79.28
63691;BME280;49837;57.280;27.070;2023-04-03T02:00:18;101006.07;;;-2.77;79.38
63691;BME280;49837;57.280;27.070;2023-04-03T02:01:18;101005.12;;;-2.76;79.39
63691;BME280;49837;57.280;27.070;2023-04-03T02:02:19;101018.59;;;-2.77;79.44
63691;BME280;49837;57.280;27.070;2023-04-03T02:03:19;101005.89;;;-2.73;79.13
63691;BME280;49837;57.280;27.070;2023-04-03T02:04:19;101005.78;;;-2.76;79.23
63691;BME280;49837;57.280;27.070;2023-04-03T02:05:20;101000.77;;;-2.79;79.4
63691;BME280;49837;57.280;27.070;2023-04-03T02:06:20;101009.09;;;-2.75;79.1
63691;BME280;49837;57.280;27.070;2023-04-03T02:07:20;101007.7;;;-2.77;79.21
63691;BME280;49837;57.280;27.070;2023-04-03T02:08:21;101005.98;;;-2.75;79.11
63691;BME280;49837;57.280;27.070;2023-04-03T02:09:21;101008.68;;;-2.77;79.13
63691;BME280;49837;57.280;27.070;2023-04-03T02:10:22;100998.34;;;-2.78;79.42
63691;BME280;49837;57.280;27.070;2023-04-03T02:11:22;101001.7;;;-2.83;79.44
63691;BME280;49837;57.280;27.070;2023-04-03T02:12:23;100997.29;;;-2.78;79.0
63691;BME280;49837;57.280;27.070;2023-04-03T02:13:23;101003.55;;;-2.79;79.03
63691;BME280;49837;57.280;27.070;2023-04-03T02:14:23;101001.0;;;-2.79;78.98
63691;BME280;49837;57.280;27.070;2023-04-03T02:15:24;100998.06;;;-2.81;79.26
63691;BME280;49837;57.280;27.070;2023-04-03T02:16:24;101005.41;;;-2.8;79.08
63691;BME280;49837;57.280;27.070;2023-04-03T02:17:25;101001.33;;;-2.79;79.27
63691;BME280;49837;57.280;27.070;2023-04-03T02:18:25;101004.23;;;-2.82;79.3
63691;BME280;49837;57.280;27.070;2023-04-03T02:19:26;101003.45;;;-2.81;79.17
63691;BME280;49837;57.280;27.070;2023-04-03T02:20:26;101003.61;;;-2.77;79.04
63691;BME280;49837;57.280;27.070;2023-04-03T02:21:26;101009.5;;;-2.77;79.14
63691;BME280;49837;57.280;27.070;2023-04-03T02:22:26;101003.0;;;-2.76;79.12
63691;BME280;49837;57.280;27.070;2023-04-03T02:23:27;101004.72;;;-2.71;79.01
63691;BME280;49837;57.280;27.070;2023-04-03T02:24:27;101001.23;;;-2.71;79.05
63691;BME280;49837;57.280;27.070;2023-04-03T02:25:29;101005.48;;;-2.73;79.36
63691;BME280;49837;57.280;27.070;2023-04-03T02:26:28;101008.23;;;-2.72;79.24
63691;BME280;49837;57.280;27.070;2023-04-03T02:27:29;101008.55;;;-2.69;78.98
63691;BME280;49837;57.280;27.070;2023-04-03T02:28:29;101014.67;;;-2.7;79.21
63691;BME280;49837;57.280;27.070;2023-04-03T02:29:29;101011.52;;;-2.67;78.9
63691;BME280;49837;57.280;27.070;2023-04-03T02:30:30;101007.08;;;-2.67;79.14
63691;BME280;49837;57.280;27.070;2023-04-03T02:31:30;101008.39;;;-2.69;79.42
63691;BME280;49837;57.280;27.070;2023-04-03T02:32:31;101007.82;;;-2.71;79.6
63691;BME280;49837;57.280;27.070;2023-04-03T02:33:31;101007.7;;;-2.7;79.53
63691;BME280;49837;57.280;27.070;2023-04-03T02:34:31;101009.48;;;-2.69;79.74
63691;BME280;49837;57.280;27.070;2023-04-03T02:35:32;101000.86;;;-2.66;79.38
63691;BME280;49837;57.280;27.070;2023-04-03T02:36:32;101010.95;;;-2.64;79.24
63691;BME280;49837;57.280;27.070;2023-04-03T02:37:33;101000.45;;;-2.66;79.48
63691;BME280;49837;57.280;27.070;2023-04-03T02:38:33;101004.12;;;-2.63;79.74
63691;BME280;49837;57.280;27.070;2023-04-03T02:39:34;101002.0;;;-2.62;79.81
63691;BME280;49837;57.280;27.070;2023-04-03T02:40:34;101005.31;;;-2.62;79.9
63691;BME280;49837;57.280;27.070;2023-04-03T02:41:34;101003.92;;;-2.63;79.76
63691;BME280;49837;57.280;27.070;2023-04-03T02:42:35;101003.19;;;-2.62;80.07
63691;BME280;49837;57.280;27.070;2023-04-03T02:43:35;101007.52;;;-2.62;79.88
63691;BME280;49837;57.280;27.070;2023-04-03T02:44:36;101004.53;;;-2.61;79.93
63691;BME280;49837;57.280;27.070;2023-04-03T02:45:36;101006.0;;;-2.61;80.18
63691;BME280;49837;57.280;27.070;2023-04-03T02:46:36;101003.72;;;-2.63;79.98
63691;BME280;49837;57.280;27.070;2023-04-03T02:47:37;100999.63;;;-2.61;80.09
63691;BME280;49837;57.280;27.070;2023-04-03T02:48:37;101011.4;;;-2.61;80.2
63691;BME280;49837;57.280;27.070;2023-04-03T02:49:38;100997.72;;;-2.62;80.38
63691;BME280;49837;57.280;27.070;2023-04-03T02:50:38;101008.83;;;-2.62;80.12
63691;BME280;49837;57.280;27.070;2023-04-03T02:51:38;101000.28;;;-2.61;80.19
63691;BME280;49837;57.280;27.070;2023-04-03T02:52:39;101001.27;;;-2.59;80.32
63691;BME280;49837;57.280;27.070;2023-04-03T02:53:39;101007.96;;;-2.59;80.36
63691;BME280;49837;57.280;27.070;2023-04-03T02:54:40;101003.34;;;-2.6;80.27
63691;BME280;49837;57.280;27.070;2023-04-03T02:55:40;101002.66;;;-2.61;80.23
63691;BME280;49837;57.280;27.070;2023-04-03T02:56:40;101012.62;;;-2.59;80.18
63691;BME280;49837;57.280;27.070;2023-04-03T02:57:41;101010.66;;;-2.59;79.98
63691;BME280;49837;57.280;27.070;2023-04-03T02:58:41;101006.45;;;-2.6;80.04
63691;BME280;49837;57.280;27.070;2023-04-03T02:59:42;101011.59;;;-2.58;79.69
63691;BME280;49837;57.280;27.070;2023-04-03T03:00:42;100999.87;;;-2.57;80.02
63691;BME280;49837;57.280;27.070;2023-04-03T03:01:43;101006.2;;;-2.58;80.14
63691;BME280;49837;57.280;27.070;2023-04-03T03:02:43;100998.03;;;-2.58;79.91
63691;BME280;49837;57.280;27.070;2023-04-03T03:03:43;101000.61;;;-2.59;79.88
63691;BME280;49837;57.280;27.070;2023-04-03T03:04:44;101001.67;;;-2.59;79.71
63691;BME280;49837;57.280;27.070;2023-04-03T03:05:44;101004.61;;;-2.59;79.87
63691;BME280;49837;57.280;27.070;2023-04-03T03:06:45;101012.53;;;-2.59;79.58
63691;BME280;49837;57.280;27.070;2023-04-03T03:07:45;101004.94;;;-2.59;79.62
63691;BME280;49837;57.280;27.070;2023-04-03T03:08:45;101006.7;;;-2.58;79.81
63691;BME280;49837;57.280;27.070;2023-04-03T03:09:46;101003.83;;;-2.56;79.75
63691;BME280;49837;57.280;27.070;2023-04-03T03:10:46;101009.6;;;-2.61;79.72
63691;BME280;49837;57.280;27.070;2023-04-03T03:11:47;101004.29;;;-2.62;79.91
63691;BME280;49837;57.280;27.070;2023-04-03T03:12:47;101003.55;;;-2.59;79.67
63691;BME280;49837;57.280;27.070;2023-04-03T03:13:47;101016.94;;;-2.59;79.79
63691;BME280;49837;57.280;27.070;2023-04-03T03:14:48;101009.52;;;-2.61;79.39
63691;BME280;49837;57.280;27.070;2023-04-03T03:15:48;101003.39;;;-2.61;79.31
63691;BME280;49837;57.280;27.070;2023-04-03T03:16:49;101004.37;;;-2.59;79.64
63691;BME280;49837;57.280;27.070;2023-04-03T03:17:49;101001.06;;;-2.61;79.98
63691;BME280;49837;57.280;27.070;2023-04-03T03:18:49;101003.96;;;-2.62;80.25
63691;BME280;49837;57.280;27.070;2023-04-03T03:19:50;101004.94;;;-2.62;80.09
63691;BME280;49837;57.280;27.070;2023-04-03T03:20:55;101002.38;;;-2.62;80.03
63691;BME280;49837;57.280;27.070;2023-04-03T03:21:53;101004.86;;;-2.61;80.26
63691;BME280;49837;57.280;27.070;2023-04-03T03:22:53;101000.98;;;-2.63;79.82
63691;BME280;49837;57.280;27.070;2023-04-03T03:23:54;101007.72;;;-2.62;79.77
63691;BME280;49837;57.280;27.070;2023-04-03T03:24:54;101006.45;;;-2.62;79.68
63691;BME280;49837;57.280;27.070;2023-04-03T03:25:59;101007.56;;;-2.61;80.19
63691;BME280;49837;57.280;27.070;2023-04-03T03:26:57;101006.0;;;-2.61;79.99
63691;BME280;49837;57.280;27.070;2023-04-03T03:27:57;101003.51;;;-2.61;80.26
63691;BME280;49837;57.280;27.070;2023-04-03T03:28:57;101009.39;;;-2.62;80.16
63691;BME280;49837;57.280;27.070;2023-04-03T03:29:58;101001.31;;;-2.62;79.9
63691;BME280;49837;57.280;27.070;2023-04-03T03:30:59;100999.75;;;-2.6;80.14
63691;BME280;49837;57.280;27.070;2023-04-03T03:31:59;101004.3;;;-2.63;79.7
63691;BME280;49837;57.280;27.070;2023-04-03T03:32:59;101002.05;;;-2.62;79.56
63691;BME280;49837;57.280;27.070;2023-04-03T03:34:00;101005.19;;;-2.63;79.58
63691;BME280;49837;57.280;27.070;2023-04-03T03:35:00;101002.01;;;-2.63;79.56
63691;BME280;49837;57.280;27.070;2023-04-03T03:36:00;101003.03;;;-2.62;79.66
63691;BME280;49837;57.280;27.070;2023-04-03T03:37:01;101000.2;;;-2.63;79.66
63691;BME280;49837;57.280;27.070;2023-04-03T03:38:01;100998.41;;;-2.63;79.85
63691;BME280;49837;57.280;27.070;2023-04-03T03:39:02;100997.68;;;-2.63;79.91
63691;BME280;49837;57.280;27.070;2023-04-03T03:40:02;101004.83;;;-2.62;79.99
63691;BME280;49837;57.280;27.070;2023-04-03T03:41:03;100999.36;;;-2.64;80.0
63691;BME280;49837;57.280;27.070;2023-04-03T03:42:03;101012.22;;;-2.65;79.47
63691;BME280;49837;57.280;27.070;2023-04-03T03:43:03;100999.44;;;-2.67;78.86
63691;BME280;49837;57.280;27.070;2023-04-03T03:44:04;101003.16;;;-2.69;78.72
63691;BME280;49837;57.280;27.070;2023-04-03T03:45:05;101001.97;;;-2.69;78.83
63691;BME280;49837;57.280;27.070;2023-04-03T03:46:04;100998.14;;;-2.69;79.36
63691;BME280;49837;57.280;27.070;2023-04-03T03:47:05;101007.32;;;-2.7;78.78
63691;BME280;49837;57.280;27.070;2023-04-03T03:48:05;101000.79;;;-2.7;78.52
63691;BME280;49837;57.280;27.070;2023-04-03T03:49:06;101001.0;;;-2.7;78.88
63691;BME280;49837;57.280;27.070;2023-04-03T03:50:07;100998.22;;;-2.69;79.1
63691;BME280;49837;57.280;27.070;2023-04-03T03:51:06;100999.8;;;-2.68;79.51
63691;BME280;49837;57.280;27.070;2023-04-03T03:52:07;101009.0;;;-2.71;78.69
63691;BME280;49837;57.280;27.070;2023-04-03T03:53:07;101009.73;;;-2.71;78.87
63691;BME280;49837;57.280;27.070;2023-04-03T03:54:08;101005.4;;;-2.69;78.95
63691;BME280;49837;57.280;27.070;2023-04-03T03:55:08;101005.61;;;-2.74;78.56
63691;BME280;49837;57.280;27.070;2023-04-03T03:56:09;101018.84;;;-2.78;78.27
63691;BME280;49837;57.280;27.070;2023-04-03T03:57:09;101003.91;;;-2.78;77.98
63691;BME280;49837;57.280;27.070;2023-04-03T03:58:09;101010.02;;;-2.76;78.25
63691;BME280;49837;57.280;27.070;2023-04-03T03:59:12;101006.56;;;-2.79;78.21
63691;BME280;49837;57.280;27.070;2023-04-03T04:00:11;101001.17;;;-2.81;78.22
63691;BME280;49837;57.280;27.070;2023-04-03T04:01:11;101010.97;;;-2.8;78.26
63691;BME280;49837;57.280;27.070;2023-04-03T04:02:11;100995.17;;;-2.8;78.05
63691;BME280;49837;57.280;27.070;2023-04-03T04:03:11;100997.98;;;-2.79;78.19
63691;BME280;49837;57.280;27.070;2023-04-03T04:04:12;100999.66;;;-2.8;78.01
63691;BME280;49837;57.280;27.070;2023-04-03T04:05:12;100989.41;;;-2.81;77.97
63691;BME280;49837;57.280;27.070;2023-04-03T04:06:13;100993.45;;;-2.82;77.86
63691;BME280;49837;57.280;27.070;2023-04-03T04:07:13;100999.7;;;-2.8;78.0
63691;BME280;49837;57.280;27.070;2023-04-03T04:08:13;100995.01;;;-2.8;78.21
63691;BME280;49837;57.280;27.070;2023-04-03T04:09:14;100994.34;;;-2.79;78.17
63691;BME280;49837;57.280;27.070;2023-04-03T04:10:14;100992.4;;;-2.8;78.23
63691;BME280;49837;57.280;27.070;2023-04-03T04:11:15;100991.29;;;-2.77;78.37
63691;BME280;49837;57.280;27.070;2023-04-03T04:12:15;100994.43;;;-2.78;78.25
63691;BME280;49837;57.280;27.070;2023-04-03T04:13:16;100999.41;;;-2.79;78.66
63691;BME280;49837;57.280;27.070;2023-04-03T04:14:16;100994.19;;;-2.79;78.73
63691;BME280;49837;57.280;27.070;2023-04-03T04:15:16;101002.11;;;-2.76;78.99
63691;BME280;49837;57.280;27.070;2023-04-03T04:16:17;100993.0;;;-2.77;78.45
63691;BME280;49837;57.280;27.070;2023-04-03T04:17:17;101004.55;;;-2.78;78.56
63691;BME280;49837;57.280;27.070;2023-04-03T04:18:17;100996.44;;;-2.81;78.31
63691;BME280;49837;57.280;27.070;2023-04-03T04:19:18;100993.7;;;-2.8;78.28
63691;BME280;49837;57.280;27.070;2023-04-03T04:20:18;100998.84;;;-2.8;78.37
63691;BME280;49837;57.280;27.070;2023-04-03T04:21:19;100995.95;;;-2.81;78.27
63691;BME280;49837;57.280;27.070;2023-04-03T04:22:19;100998.76;;;-2.79;78.57
63691;BME280;49837;57.280;27.070;2023-04-03T04:23:20;100999.09;;;-2.8;78.11
63691;BME280;49837;57.280;27.070;2023-04-03T04:24:20;100991.05;;;-2.81;78.05
63691;BME280;49837;57.280;27.070;2023-04-03T04:25:20;100991.91;;;-2.83;77.59
63691;BME280;49837;57.280;27.070;2023-04-03T04:26:21;101008.11;;;-2.81;77.43
63691;BME280;49837;57.280;27.070;2023-04-03T04:27:21;100997.95;;;-2.82;77.45
63691;BME280;49837;57.280;27.070;2023-04-03T04:28:22;100998.31;;;-2.81;77.58
63691;BME280;49837;57.280;27.070;2023-04-03T04:29:22;100994.84;;;-2.76;77.99
63691;BME280;49837;57.280;27.070;2023-04-03T04:30:22;101004.69;;;-2.79;77.68
63691;BME280;49837;57.280;27.070;2023-04-03T04:31:23;101002.06;;;-2.78;77.82
63691;BME280;49837;57.280;27.070;2023-04-03T04:32:23;100991.86;;;-2.77;77.9
63691;BME280;49837;57.280;27.070;2023-04-03T04:33:24;101001.66;;;-2.77;77.77
63691;BME280;49837;57.280;27.070;2023-04-03T04:34:24;101003.45;;;-2.77;77.69
63691;BME280;49837;57.280;27.070;2023-04-03T04:35:25;101004.8;;;-2.74;78.08
63691;BME280;49837;57.280;27.070;2023-04-03T04:36:25;101000.59;;;-2.77;77.92
63691;BME280;49837;57.280;27.070;2023-04-03T04:37:25;100999.78;;;-2.75;78.09
63691;BME280;49837;57.280;27.070;2023-04-03T04:38:26;101006.75;;;-2.72;78.45
63691;BME280;49837;57.280;27.070;2023-04-03T04:39:26;101004.96;;;-2.74;78.08
63691;BME280;49837;57.280;27.070;2023-04-03T04:40:26;101003.95;;;-2.74;77.89
63691;BME280;49837;57.280;27.070;2023-04-03T04:41:27;101002.62;;;-2.73;78.09
63691;BME280;49837;57.280;27.070;2023-04-03T04:42:27;101003.73;;;-2.72;78.21
63691;BME280;49837;57.280;27.070;2023-04-03T04:43:28;100992.62;;;-2.72;78.12
63691;BME280;49837;57.280;27.070;2023-04-03T04:44:28;101011.12;;;-2.73;78.14
63691;BME280;49837;57.280;27.070;2023-04-03T04:45:28;101005.05;;;-2.74;77.78
63691;BME280;49837;57.280;27.070;2023-04-03T04:46:29;101000.72;;;-2.8;77.44
63691;BME280;49837;57.280;27.070;2023-04-03T04:47:29;101000.19;;;-2.77;77.64
63691;BME280;49837;57.280;27.070;2023-04-03T04:48:30;100998.72;;;-2.79;77.8
63691;BME280;49837;57.280;27.070;2023-04-03T04:49:30;101002.28;;;-2.82;77.42
63691;BME280;49837;57.280;27.070;2023-04-03T04:50:31;101001.12;;;-2.8;77.68
63691;BME280;49837;57.280;27.070;2023-04-03T04:51:31;101000.97;;;-2.81;77.47
63691;BME280;49837;57.280;27.070;2023-04-03T04:52:34;100999.13;;;-2.79;77.73
63691;BME280;49837;57.280;27.070;2023-04-03T04:53:35;101003.09;;;-2.78;77.57
63691;BME280;49837;57.280;27.070;2023-04-03T04:54:35;101001.12;;;-2.76;77.58
63691;BME280;49837;57.280;27.070;2023-04-03T04:55:35;100995.81;;;-2.76;77.53
63691;BME280;49837;57.280;27.070;2023-04-03T04:56:36;100999.45;;;-2.72;77.71
63691;BME280;49837;57.280;27.070;2023-04-03T04:57:36;101003.17;;;-2.8;77.13
63691;BME280;49837;57.280;27.070;2023-04-03T04:58:37;101005.7;;;-2.85;77.02
63691;BME280;49837;57.280;27.070;2023-04-03T04:59:37;101004.69;;;-2.83;76.75
63691;BME280;49837;57.280;27.070;2023-04-03T05:00:38;100999.13;;;-2.88;76.6
63691;BME280;49837;57.280;27.070;2023-04-03T05:01:38;101003.17;;;-2.81;76.84
63691;BME280;49837;57.280;27.070;2023-04-03T05:02:38;101009.59;;;-2.85;76.69
63691;BME280;49837;57.280;27.070;2023-04-03T05:03:39;101032.97;;;-2.89;75.75
63691;BME280;49837;57.280;27.070;2023-04-03T05:04:39;101008.24;;;-2.91;75.92
63691;BME280;49837;57.280;27.070;2023-04-03T05:05:39;101013.66;;;-2.92;75.63
63691;BME280;49837;57.280;27.070;2023-04-03T05:06:40;101001.06;;;-2.93;75.88
63691;BME280;49837;57.280;27.070;2023-04-03T05:07:40;101007.22;;;-2.9;75.72
63691;BME280;49837;57.280;27.070;2023-04-03T05:08:41;101010.48;;;-2.9;75.56
63691;BME280;49837;57.280;27.070;2023-04-03T05:09:41;101017.09;;;-2.94;75.47
63691;BME280;49837;57.280;27.070;2023-04-03T05:10:42;101008.37;;;-2.94;75.53
63691;BME280;49837;57.280;27.070;2023-04-03T05:11:42;101013.88;;;-2.95;75.51
63691;BME280;49837;57.280;27.070;2023-04-03T05:12:43;101018.45;;;-2.93;75.64
63691;BME280;49837;57.280;27.070;2023-04-03T05:13:43;101023.5;;;-2.98;75.13
63691;BME280;49837;57.280;27.070;2023-04-03T05:14:43;101015.59;;;-2.97;75.48
63691;BME280;49837;57.280;27.070;2023-04-03T05:15:44;101018.57;;;-2.96;75.53
63691;BME280;49837;57.280;27.070;2023-04-03T05:16:44;101016.77;;;-2.92;75.83
63691;BME280;49837;57.280;27.070;2023-04-03T05:17:44;101018.36;;;-2.89;75.82
63691;BME280;49837;57.280;27.070;2023-04-03T05:18:45;101020.81;;;-2.87;75.63
63691;BME280;49837;57.280;27.070;2023-04-03T05:19:45;101014.41;;;-2.92;75.42
63691;BME280;49837;57.280;27.070;2023-04-03T05:20:48;101009.51;;;-2.92;75.43
63691;BME280;49837;57.280;27.070;2023-04-03T05:21:47;101000.88;;;-2.83;75.9